sensor_id;sensor_type;location;lat;lon;timestamp;pressure;altitude;pressure_sealevel;temperature;humidity
24825;BME280;12910;57.690;11.974;2023-04-25T00:00:14;98951.13;;;9.83;100.00
24825;BME280;12910;57.690;11.974;2023-04-25T00:02:40;98941.81;;;9.74;100.00
24825;BME280;12910;57.690;11.974;2023-04-25T00:05:05;98941.00;;;9.71;100.00
24825;BME280;12910;57.690;11.974;2023-04-25T00:07:31;98949.56;;;9.63;100.00
24825;BME280;12910;57.690;11.974;2023-04-25T00:09:57;98951.28;;;9.61;100.00
24825;BME280;12910;57.690;11.974;2023-04-25T00:12:23;98938.53;;;9.54;100.00
24825;BME280;12910;57.690;11.974;2023-04-25T00:14:48;98951.31;;;9.58;100.00
24825;BME280;12910;57.690;11.974;2023-04-25T00:17:15;98960.63;;;9.64;100.00
24825;BME280;12910;57.690;11.974;2023-04-25T00:19:44;98964.94;;;9.57;100.00
24825;BME280;12910;57.690;11.974;2023-04-25T00:22:11;98956.50;;;9.50;100.00
24825;BME280;12910;57.690;11.974;2023-04-25T00:24:37;98955.66;;;9.47;100.00
24825;BME280;12910;57.690;11.974;2023-04-25T00:27:02;98950.56;;;9.42;100.00
24825;BME280;12910;57.690;11.974;2023-04-25T00:29:28;98959.06;;;9.46;100.00
24825;BME280;12910;57.690;11.974;2023-04-25T00:31:53;98959.09;;;9.41;100.00
24825;BME280;12910;57.690;11.974;2023-04-25T00:34:19;98959.06;;;9.43;100.00
24825;BME280;12910;57.690;11.974;2023-04-25T00:36:44;98968.44;;;9.47;100.00
24825;BME280;12910;57.690;11.974;2023-04-25T00:39:10;98960.78;;;9.41;100.00
24825;BME280;12910;57.690;11.974;2023-04-25T00:41:35;98962.47;;;9.43;100.00
24825;BME280;12910;57.690;11.974;2023-04-25T00:44:02;98976.13;;;9.44;100.00
24825;BME280;12910;57.690;11.974;2023-04-25T00:46:28;98956.59;;;9.33;100.00
24825;BME280;12910;57.690;11.974;2023-04-25T00:48:54;98963.41;;;9.28;100.00
24825;BME280;12910;57.690;11.974;2023-04-25T00:51:20;98950.66;;;9.24;100.00
24825;BME280;12910;57.690;11.974;2023-04-25T00:53:48;98980.44;;;9.35;100.00
24825;BME280;12910;57.690;11.974;2023-04-25T00:56:15;98960.00;;;9.29;100.00
24825;BME280;12910;57.690;11.974;2023-04-25T00:58:41;98973.63;;;9.38;100.00
24825;BME280;12910;57.690;11.974;2023-04-25T01:01:07;98968.50;;;9.34;100.00
24825;BME280;12910;57.690;11.974;2023-04-25T01:03:34;98965.94;;;9.33;100.00
24825;BME280;12910;57.690;11.974;2023-04-25T01:06:09;98944.72;;;9.18;100.00
24825;BME280;12910;57.690;11.974;2023-04-25T01:08:36;98974.47;;;9.37;100.00
24825;BME280;12910;57.690;11.974;2023-04-25T01:11:02;98965.97;;;9.30;100.00
24825;BME280;12910;57.690;11.974;2023-04-25T01:13:27;98968.53;;;9.28;100.00
24825;BME280;12910;57.690;11.974;2023-04-25T01:15:52;98964.28;;;9.27;100.00
24825;BME280;12910;57.690;11.974;2023-04-25T01:18:18;98958.34;;;9.22;100.00
24825;BME280;12910;57.690;11.974;2023-04-25T01:20:45;98964.25;;;9.30;100.00
24825;BME280;12910;57.690;11.974;2023-04-25T01:23:10;98961.75;;;9.21;100.00
24825;BME280;12910;57.690;11.974;2023-04-25T01:25:36;98968.56;;;9.25;100.00
24825;BME280;12910;57.690;11.974;2023-04-25T01:28:02;98959.22;;;9.19;100.00
24825;BME280;12910;57.690;11.974;2023-04-25T01:30:28;98949.00;;;9.16;100.00
24825;BME280;12910;57.690;11.974;2023-04-25T01:32:55;98971.09;;;9.27;100.00
24825;BME280;12910;57.690;11.974;2023-04-25T01:35:20;98962.56;;;9.25;100.00
24825;BME280;12910;57.690;11.974;2023-04-25T01:37:47;98960.03;;;9.20;100.00
24825;BME280;12910;57.690;11.974;2023-04-25T01:40:12;98966.84;;;9.24;100.00
24825;BME280;12910;57.690;11.974;2023-04-25T01:42:40;98963.44;;;9.25;100.00
24825;BME280;12910;57.690;11.974;2023-04-25T01:45:07;98974.50;;;9.29;100.00
24825;BME280;12910;57.690;11.974;2023-04-25T01:47:33;98964.31;;;9.24;100.00
24825;BME280;12910;57.690;11.974;2023-04-25T01:50:03;98955.75;;;9.27;100.00
24825;BME280;12910;57.690;11.974;2023-04-25T01:52:29;98945.53;;;9.24;100.00
24825;BME280;12910;57.690;11.974;2023-04-25T01:54:56;98956.59;;;9.30;100.00
24825;BME280;12910;57.690;11.974;2023-04-25T01:57:22;98948.94;;;9.29;100.00
24825;BME280;12910;57.690;11.974;2023-04-25T01:59:48;98932.78;;;9.19;100.00
24825;BME280;12910;57.690;11.974;2023-04-25T02:02:14;98949.81;;;9.25;100.00
24825;BME280;12910;57.690;11.974;2023-04-25T02:04:39;98948.94;;;9.29;100.00
24825;BME280;12910;57.690;11.974;2023-04-25T02:07:05;98941.31;;;9.21;100.00
24825;BME280;12910;57.690;11.974;2023-04-25T02:09:30;98948.97;;;9.24;100.00
24825;BME280;12910;57.690;11.974;2023-04-25T02:11:55;98932.78;;;9.20;100.00
24825;BME280;12910;57.690;11.974;2023-04-25T02:14:21;98944.72;;;9.23;100.00
24825;BME280;12910;57.690;11.974;2023-04-25T02:16:46;98945.56;;;9.22;100.00
24825;BME280;12910;57.690;11.974;2023-04-25T02:19:12;98943.06;;;9.16;100.00
24825;BME280;12910;57.690;11.974;2023-04-25T02:21:37;98937.09;;;9.12;100.00
24825;BME280;12910;57.690;11.974;2023-04-25T02:24:03;98937.09;;;9.12;100.00
24825;BME280;12910;57.690;11.974;2023-04-25T02:26:29;98937.94;;;9.13;100.00
24825;BME280;12910;57.690;11.974;2023-04-25T02:28:56;98935.41;;;9.08;100.00
24825;BME280;12910;57.690;11.974;2023-04-25T02:31:21;98919.28;;;9.00;100.00
24825;BME280;12910;57.690;11.974;2023-04-25T02:33:48;98932.00;;;9.12;100.00
24825;BME280;12910;57.690;11.974;2023-04-25T02:36:13;98929.44;;;9.11;100.00
24825;BME280;12910;57.690;11.974;2023-04-25T02:38:39;98921.81;;;9.08;100.00
24825;BME280;12910;57.690;11.974;2023-04-25T02:41:04;98922.69;;;9.02;100.00
24825;BME280;12910;57.690;11.974;2023-04-25T02:43:30;98925.19;;;9.05;100.00
24825;BME280;12910;57.690;11.974;2023-04-25T02:45:55;98932.81;;;9.16;100.00
24825;BME280;12910;57.690;11.974;2023-04-25T02:48:20;98903.03;;;9.07;100.00
24825;BME280;12910;57.690;11.974;2023-04-25T02:50:46;98893.69;;;9.01;100.00
24825;BME280;12910;57.690;11.974;2023-04-25T02:53:11;98919.25;;;9.08;100.00
24825;BME280;12910;57.690;11.974;2023-04-25T02:55:37;98916.66;;;9.11;100.00
24825;BME280;12910;57.690;11.974;2023-04-25T02:58:02;98900.50;;;9.02;100.00
24825;BME280;12910;57.690;11.974;2023-04-25T03:00:28;98897.94;;;9.07;100.00
24825;BME280;12910;57.690;11.974;2023-04-25T03:02:53;98888.59;;;9.01;100.00
24825;BME280;12910;57.690;11.974;2023-04-25T03:05:19;98893.69;;;9.04;100.00
24825;BME280;12910;57.690;11.974;2023-04-25T03:07:44;98909.03;;;9.04;100.00
24825;BME280;12910;57.690;11.974;2023-04-25T03:10:10;98903.94;;;9.03;100.00
24825;BME280;12910;57.690;11.974;2023-04-25T03:12:36;98898.84;;;8.98;100.00
24825;BME280;12910;57.690;11.974;2023-04-25T03:15:02;98905.59;;;9.07;100.00
24825;BME280;12910;57.690;11.974;2023-04-25T03:17:27;98894.59;;;8.91;100.00
24825;BME280;12910;57.690;11.974;2023-04-25T03:19:53;98896.31;;;8.95;100.00
24825;BME280;12910;57.690;11.974;2023-04-25T03:22:18;98889.50;;;8.94;100.00
24825;BME280;12910;57.690;11.974;2023-04-25T03:24:44;98892.03;;;8.97;100.00
24825;BME280;12910;57.690;11.974;2023-04-25T03:27:09;98903.91;;;9.01;100.00
24825;BME280;12910;57.690;11.974;2023-04-25T03:29:35;98886.94;;;8.94;100.00
24825;BME280;12910;57.690;11.974;2023-04-25T03:32:01;98887.75;;;8.98;100.00
24825;BME280;12910;57.690;11.974;2023-04-25T03:34:27;98881.00;;;8.94;100.00
24825;BME280;12910;57.690;11.974;2023-04-25T03:36:53;98891.19;;;8.95;100.00
24825;BME280;12910;57.690;11.974;2023-04-25T03:39:18;98882.69;;;8.88;100.00
24825;BME280;12910;57.690;11.974;2023-04-25T03:41:43;98878.44;;;8.94;100.00
24825;BME280;12910;57.690;11.974;2023-04-25T03:44:09;98872.47;;;8.90;100.00
24825;BME280;12910;57.690;11.974;2023-04-25T03:46:34;98871.66;;;8.88;100.00
24825;BME280;12910;57.690;11.974;2023-04-25T03:48:59;98882.69;;;8.92;100.00
24825;BME280;12910;57.690;11.974;2023-04-25T03:51:25;98880.16;;;8.92;100.00
24825;BME280;12910;57.690;11.974;2023-04-25T03:53:51;98870.81;;;8.83;100.00
24825;BME280;12910;57.690;11.974;2023-04-25T03:56:17;98869.97;;;8.81;100.00
24825;BME280;12910;57.690;11.974;2023-04-25T03:58:42;98876.75;;;8.88;100.00
24825;BME280;12910;57.690;11.974;2023-04-25T04:01:08;98879.28;;;8.94;100.00
24825;BME280;12910;57.690;11.974;2023-04-25T04:03:34;98886.94;;;8.91;100.00
24825;BME280;12910;57.690;11.974;2023-04-25T04:06:01;98878.47;;;8.86;100.00
24825;BME280;12910;57.690;11.974;2023-04-25T04:08:28;98881.03;;;8.84;100.00
24825;BME280;12910;57.690;11.974;2023-04-25T04:10:53;98875.06;;;8.84;100.00
24825;BME280;12910;57.690;11.974;2023-04-25T04:13:18;98884.44;;;8.85;100.00
24825;BME280;12910;57.690;11.974;2023-04-25T04:15:44;98892.91;;;8.92;100.00
24825;BME280;12910;57.690;11.974;2023-04-25T04:18:09;98864.88;;;8.75;100.00
24825;BME280;12910;57.690;11.974;2023-04-25T04:20:35;98868.28;;;8.77;100.00
24825;BME280;12910;57.690;11.974;2023-04-25T04:23:01;98889.56;;;8.80;100.00
24825;BME280;12910;57.690;11.974;2023-04-25T04:25:26;98870.84;;;8.70;100.00
24825;BME280;12910;57.690;11.974;2023-04-25T04:27:52;98882.72;;;8.81;100.00
24825;BME280;12910;57.690;11.974;2023-04-25T04:30:23;98885.28;;;8.81;100.00
24825;BME280;12910;57.690;11.974;2023-04-25T04:32:50;98895.50;;;8.81;100.00
24825;BME280;12910;57.690;11.974;2023-04-25T04:35:16;98876.78;;;8.77;100.00
24825;BME280;12910;57.690;11.974;2023-04-25T04:37:41;98888.69;;;8.83;100.00
24825;BME280;12910;57.690;11.974;2023-04-25T04:40:07;98883.56;;;8.87;100.00
24825;BME280;12910;57.690;11.974;2023-04-25T04:42:32;98892.09;;;8.88;100.00
24825;BME280;12910;57.690;11.974;2023-04-25T04:44:58;98880.22;;;8.73;100.00
24825;BME280;12910;57.690;11.974;2023-04-25T04:47:24;98894.63;;;8.86;100.00
24825;BME280;12910;57.690;11.974;2023-04-25T04:49:50;98892.94;;;8.81;100.00
24825;BME280;12910;57.690;11.974;2023-04-25T04:52:16;98886.16;;;8.80;100.00
24825;BME280;12910;57.690;11.974;2023-04-25T04:54:41;98885.31;;;8.79;100.00
24825;BME280;12910;57.690;11.974;2023-04-25T04:57:07;98880.22;;;8.75;100.00
24825;BME280;12910;57.690;11.974;2023-04-25T04:59:32;98883.63;;;8.70;100.00
24825;BME280;12910;57.690;11.974;2023-04-25T05:01:57;98897.25;;;8.79;100.00
24825;BME280;12910;57.690;11.974;2023-04-25T05:04:23;98905.72;;;8.81;100.00
24825;BME280;12910;57.690;11.974;2023-04-25T05:06:48;98896.41;;;8.66;100.00
24825;BME280;12910;57.690;11.974;2023-04-25T05:09:13;98897.25;;;8.76;100.00
24825;BME280;12910;57.690;11.974;2023-04-25T05:11:40;98887.06;;;8.69;100.00
24825;BME280;12910;57.690;11.974;2023-04-25T05:14:05;98886.22;;;8.64;100.00
24825;BME280;12910;57.690;11.974;2023-04-25T05:16:30;98892.16;;;8.69;100.00
24825;BME280;12910;57.690;11.974;2023-04-25T05:18:56;98892.16;;;8.68;100.00
24825;BME280;12910;57.690;11.974;2023-04-25T05:21:21;98900.66;;;8.78;100.00
24825;BME280;12910;57.690;11.974;2023-04-25T05:23:47;98892.13;;;8.80;100.00
24825;BME280;12910;57.690;11.974;2023-04-25T05:26:12;98900.59;;;8.85;100.00
24825;BME280;12910;57.690;11.974;2023-04-25T05:28:41;98907.41;;;8.85;100.00
24825;BME280;12910;57.690;11.974;2023-04-25T05:31:08;98902.31;;;8.85;100.00
24825;BME280;12910;57.690;11.974;2023-04-25T05:33:35;98910.78;;;8.90;100.00
24825;BME280;12910;57.690;11.974;2023-04-25T05:36:00;98901.47;;;8.86;100.00
24825;BME280;12910;57.690;11.974;2023-04-25T05:38:26;98909.09;;;8.87;100.00
24825;BME280;12910;57.690;11.974;2023-04-25T05:40:51;98901.47;;;8.83;100.00
24825;BME280;12910;57.690;11.974;2023-04-25T05:43:16;98923.56;;;8.93;100.00
24825;BME280;12910;57.690;11.974;2023-04-25T05:45:42;98912.50;;;8.86;100.00
24825;BME280;12910;57.690;11.974;2023-04-25T05:48:07;98931.25;;;8.92;100.00
24825;BME280;12910;57.690;11.974;2023-04-25T05:50:32;98917.63;;;8.82;100.00
24825;BME280;12910;57.690;11.974;2023-04-25T05:52:58;98921.03;;;8.81;100.00
24825;BME280;12910;57.690;11.974;2023-04-25T05:55:23;98923.59;;;8.85;100.00
24825;BME280;12910;57.690;11.974;2023-04-25T05:57:48;98912.53;;;8.85;100.00
24825;BME280;12910;57.690;11.974;2023-04-25T06:00:14;98918.50;;;8.84;100.00
24825;BME280;12910;57.690;11.974;2023-04-25T06:02:41;98912.53;;;8.82;100.00
24825;BME280;12910;57.690;11.974;2023-04-25T06:05:07;98911.69;;;8.86;100.00
24825;BME280;12910;57.690;11.974;2023-04-25T06:07:33;98920.19;;;8.85;100.00
24825;BME280;12910;57.690;11.974;2023-04-25T06:09:58;98936.34;;;8.90;100.00
24825;BME280;12910;57.690;11.974;2023-04-25T06:12:25;98933.84;;;8.75;100.00
24825;BME280;12910;57.690;11.974;2023-04-25T06:14:50;98940.69;;;8.68;100.00
24825;BME280;12910;57.690;11.974;2023-04-25T06:17:15;98950.06;;;8.61;100.00
24825;BME280;12910;57.690;11.974;2023-04-25T06:19:41;98948.41;;;8.51;100.00
24825;BME280;12910;57.690;11.974;2023-04-25T06:22:07;98925.41;;;8.40;100.00
24825;BME280;12910;57.690;11.974;2023-04-25T06:24:33;98929.69;;;8.33;100.00
24825;BME280;12910;57.690;11.974;2023-04-25T06:26:58;98944.13;;;8.39;100.00
24825;BME280;12910;57.690;11.974;2023-04-25T06:29:23;98938.19;;;8.32;100.00
24825;BME280;12910;57.690;11.974;2023-04-25T06:31:49;98939.06;;;8.28;100.00
24825;BME280;12910;57.690;11.974;2023-04-25T06:34:15;98961.16;;;8.31;100.00
24825;BME280;12910;57.690;11.974;2023-04-25T06:36:40;98937.38;;;8.18;100.00
24825;BME280;12910;57.690;11.974;2023-04-25T06:39:07;98962.06;;;8.09;100.00
24825;BME280;12910;57.690;11.974;2023-04-25T06:41:33;98961.22;;;7.97;100.00
24825;BME280;12910;57.690;11.974;2023-04-25T06:43:58;98962.91;;;8.07;100.00
24825;BME280;12910;57.690;11.974;2023-04-25T06:46:24;98973.97;;;8.07;100.00
24825;BME280;12910;57.690;11.974;2023-04-25T06:48:49;98954.38;;;8.03;100.00
24825;BME280;12910;57.690;11.974;2023-04-25T06:51:15;98977.34;;;7.97;100.00
24825;BME280;12910;57.690;11.974;2023-04-25T06:53:40;98978.22;;;7.94;100.00
24825;BME280;12910;57.690;11.974;2023-04-25T06:56:06;98973.97;;;7.92;100.00
24825;BME280;12910;57.690;11.974;2023-04-25T06:58:31;98986.69;;;7.86;100.00
24825;BME280;12910;57.690;11.974;2023-04-25T07:00:57;98985.84;;;7.87;100.00
24825;BME280;12910;57.690;11.974;2023-04-25T07:03:23;98985.00;;;7.89;100.00
24825;BME280;12910;57.690;11.974;2023-04-25T07:05:49;98966.31;;;7.79;100.00
24825;BME280;12910;57.690;11.974;2023-04-25T07:08:15;98975.66;;;7.90;100.00
24825;BME280;12910;57.690;11.974;2023-04-25T07:10:40;98996.09;;;7.93;100.00
24825;BME280;12910;57.690;11.974;2023-04-25T07:13:06;98980.75;;;7.77;100.00
24825;BME280;12910;57.690;11.974;2023-04-25T07:15:31;98994.34;;;7.79;100.00
24825;BME280;12910;57.690;11.974;2023-04-25T07:17:56;98988.44;;;7.84;100.00
24825;BME280;12910;57.690;11.974;2023-04-25T07:20:22;98994.34;;;7.79;100.00
24825;BME280;12910;57.690;11.974;2023-04-25T07:22:47;99007.09;;;7.76;100.00
24825;BME280;12910;57.690;11.974;2023-04-25T07:25:13;99006.28;;;7.84;100.00
24825;BME280;12910;57.690;11.974;2023-04-25T07:27:38;98996.03;;;7.70;100.00
24825;BME280;12910;57.690;11.974;2023-04-25T07:30:05;98989.25;;;7.70;100.00
24825;BME280;12910;57.690;11.974;2023-04-25T07:32:30;99005.41;;;7.88;100.00
24825;BME280;12910;57.690;11.974;2023-04-25T07:34:56;98991.81;;;7.81;100.00
24825;BME280;12910;57.690;11.974;2023-04-25T07:37:21;99019.03;;;7.85;100.00
24825;BME280;12910;57.690;11.974;2023-04-25T07:39:47;99012.22;;;7.78;100.00
24825;BME280;12910;57.690;11.974;2023-04-25T07:42:12;99007.13;;;7.73;100.00
24825;BME280;12910;57.690;11.974;2023-04-25T07:44:38;99019.84;;;7.76;100.00
24825;BME280;12910;57.690;11.974;2023-04-25T07:47:05;99008.78;;;7.68;100.00
24825;BME280;12910;57.690;11.974;2023-04-25T07:49:33;99031.72;;;7.62;100.00
24825;BME280;12910;57.690;11.974;2023-04-25T07:51:59;99005.34;;;7.46;100.00
24825;BME280;12910;57.690;11.974;2023-04-25T07:54:25;99030.84;;;7.47;100.00
24825;BME280;12910;57.690;11.974;2023-04-25T07:56:50;99026.63;;;7.57;100.00
24825;BME280;12910;57.690;11.974;2023-04-25T07:59:16;99040.25;;;7.64;100.00
24825;BME280;12910;57.690;11.974;2023-04-25T08:01:41;99034.31;;;7.71;100.00
24825;BME280;12910;57.690;11.974;2023-04-25T08:04:06;99041.09;;;7.68;100.00
24825;BME280;12910;57.690;11.974;2023-04-25T08:06:32;99043.63;;;7.60;100.00
24825;BME280;12910;57.690;11.974;2023-04-25T08:08:58;99032.53;;;7.47;100.00
24825;BME280;12910;57.690;11.974;2023-04-25T08:11:23;99043.50;;;7.29;100.00
24825;BME280;12910;57.690;11.974;2023-04-25T08:13:49;99048.66;;;7.35;100.00
24825;BME280;12910;57.690;11.974;2023-04-25T08:16:14;99040.16;;;7.45;100.00
24825;BME280;12910;57.690;11.974;2023-04-25T08:18:39;99041.81;;;7.26;100.00
24825;BME280;12910;57.690;11.974;2023-04-25T08:21:05;99053.75;;;7.35;100.00
24825;BME280;12910;57.690;11.974;2023-04-25T08:23:31;99064.81;;;7.39;100.00
24825;BME280;12910;57.690;11.974;2023-04-25T08:25:57;99040.97;;;7.33;100.00
24825;BME280;12910;57.690;11.974;2023-04-25T08:28:22;99054.63;;;7.43;100.00
24825;BME280;12910;57.690;11.974;2023-04-25T08:30:48;99049.44;;;7.23;100.00
24825;BME280;12910;57.690;11.974;2023-04-25T08:33:13;99035.81;;;7.15;100.00
24825;BME280;12910;57.690;11.974;2023-04-25T08:35:38;99057.13;;;7.37;100.00
24825;BME280;12910;57.690;11.974;2023-04-25T08:38:04;99051.19;;;7.38;100.00
24825;BME280;12910;57.690;11.974;2023-04-25T08:40:32;99055.47;;;7.45;100.00
24825;BME280;12910;57.690;11.974;2023-04-25T08:43:01;99047.78;;;7.33;100.00
24825;BME280;12910;57.690;11.974;2023-04-25T08:45:31;99049.50;;;7.42;100.00
24825;BME280;12910;57.690;11.974;2023-04-25T08:47:57;99046.97;;;7.43;100.00
24825;BME280;12910;57.690;11.974;2023-04-25T08:50:23;99052.91;;;7.44;100.00
24825;BME280;12910;57.690;11.974;2023-04-25T08:52:53;99064.00;;;7.51;100.00
24825;BME280;12910;57.690;11.974;2023-04-25T08:55:18;99055.47;;;7.45;100.00
24825;BME280;12910;57.690;11.974;2023-04-25T08:57:47;99074.22;;;7.54;100.00
24825;BME280;12910;57.690;11.974;2023-04-25T09:00:13;99068.19;;;7.38;100.00
24825;BME280;12910;57.690;11.974;2023-04-25T09:02:39;99084.38;;;7.51;100.00
24825;BME280;12910;57.690;11.974;2023-04-25T09:05:06;99072.47;;;7.46;100.00
24825;BME280;12910;57.690;11.974;2023-04-25T09:07:32;99073.38;;;7.55;100.00
24825;BME280;12910;57.690;11.974;2023-04-25T09:09:58;99069.06;;;7.47;100.00
24825;BME280;12910;57.690;11.974;2023-04-25T09:12:27;99058.88;;;7.46;100.00
24825;BME280;12910;57.690;11.974;2023-04-25T09:15:10;99078.50;;;7.75;100.00
24825;BME280;12910;57.690;11.974;2023-04-25T09:17:36;99071.66;;;7.60;100.00
24825;BME280;12910;57.690;11.974;2023-04-25T09:20:06;99060.56;;;7.48;100.00
24825;BME280;12910;57.690;11.974;2023-04-25T09:22:33;99069.94;;;7.53;100.00
24825;BME280;12910;57.690;11.974;2023-04-25T09:25:02;99074.16;;;7.47;100.00
24825;BME280;12910;57.690;11.974;2023-04-25T09:27:28;99080.94;;;7.39;100.00
24825;BME280;12910;57.690;11.974;2023-04-25T09:29:58;99086.03;;;7.41;100.00
24825;BME280;12910;57.690;11.974;2023-04-25T09:32:27;99073.28;;;7.38;100.00
24825;BME280;12910;57.690;11.974;2023-04-25T09:34:54;99076.69;;;7.43;100.00
24825;BME280;12910;57.690;11.974;2023-04-25T09:37:25;99108.97;;;7.39;100.00
24825;BME280;12910;57.690;11.974;2023-04-25T09:39:56;99089.38;;;7.26;100.00
24825;BME280;12910;57.690;11.974;2023-04-25T09:42:24;99090.28;;;7.36;100.00
24825;BME280;12910;57.690;11.974;2023-04-25T09:44:55;99097.97;;;7.43;100.00
24825;BME280;12910;57.690;11.974;2023-04-25T09:47:26;99098.81;;;7.42;100.00
24825;BME280;12910;57.690;11.974;2023-04-25T09:50:00;99100.47;;;7.42;100.00
24825;BME280;12910;57.690;11.974;2023-04-25T09:52:26;99081.72;;;7.21;100.00
24825;BME280;12910;57.690;11.974;2023-04-25T09:54:52;99110.66;;;7.36;100.00
24825;BME280;12910;57.690;11.974;2023-04-25T09:57:18;99113.28;;;7.53;100.00
24825;BME280;12910;57.690;11.974;2023-04-25T09:59:48;99081.00;;;7.55;100.00
24825;BME280;12910;57.690;11.974;2023-04-25T10:02:16;99093.75;;;7.55;100.00
24825;BME280;12910;57.690;11.974;2023-04-25T10:04:45;99106.50;;;7.55;100.00
24825;BME280;12910;57.690;11.974;2023-04-25T10:07:13;99087.78;;;7.53;100.00
24825;BME280;12910;57.690;11.974;2023-04-25T10:09:39;99088.66;;;7.61;100.00
24825;BME280;12910;57.690;11.974;2023-04-25T10:12:08;99122.69;;;7.68;100.00
24825;BME280;12910;57.690;11.974;2023-04-25T10:14:35;99104.78;;;7.55;100.00
24825;BME280;12910;57.690;11.974;2023-04-25T10:17:01;99128.66;;;7.74;100.00
24825;BME280;12910;57.690;11.974;2023-04-25T10:19:27;99128.63;;;7.67;100.00
24825;BME280;12910;57.690;11.974;2023-04-25T10:24:21;99135.47;;;7.72;100.00
24825;BME280;12910;57.690;11.974;2023-04-25T10:26:47;99111.63;;;7.67;100.00
24825;BME280;12910;57.690;11.974;2023-04-25T10:29:21;99103.97;;;7.66;100.00
24825;BME280;12910;57.690;11.974;2023-04-25T10:31:47;99103.13;;;7.62;100.00
24825;BME280;12910;57.690;11.974;2023-04-25T10:34:12;99109.09;;;7.76;100.00
24825;BME280;12910;57.690;11.974;2023-04-25T10:36:38;99100.63;;;7.77;100.00
24825;BME280;12910;57.690;11.974;2023-04-25T10:39:05;99127.00;;;7.90;100.00
24825;BME280;12910;57.690;11.974;2023-04-25T10:41:48;99137.13;;;7.72;100.00
24825;BME280;12910;57.690;11.974;2023-04-25T10:44:17;99116.72;;;7.67;100.00
24825;BME280;12910;57.690;11.974;2023-04-25T10:46:44;99122.63;;;7.55;100.00
24825;BME280;12910;57.690;11.974;2023-04-25T10:49:11;99115.81;;;7.51;100.00
24825;BME280;12910;57.690;11.974;2023-04-25T10:52:10;99130.28;;;7.54;100.00
24825;BME280;12910;57.690;11.974;2023-04-25T10:54:46;99124.31;;;7.47;100.00
24825;BME280;12910;57.690;11.974;2023-04-25T10:57:32;99114.06;;;7.41;100.00
24825;BME280;12910;57.690;11.974;2023-04-25T11:00:14;99140.50;;;7.60;100.00
24825;BME280;12910;57.690;11.974;2023-04-25T11:02:45;99145.53;;;7.44;100.00
24825;BME280;12910;57.690;11.974;2023-04-25T11:05:33;99148.00;;;7.29;100.00
24825;BME280;12910;57.690;11.974;2023-04-25T11:07:58;99132.69;;;7.21;100.00
24825;BME280;12910;57.690;11.974;2023-04-25T11:10:30;99133.53;;;7.23;100.00
24825;BME280;12910;57.690;11.974;2023-04-25T11:12:56;99142.00;;;7.21;100.00
24825;BME280;12910;57.690;11.974;2023-04-25T11:15:22;99162.50;;;7.39;100.00
24825;BME280;12910;57.690;11.974;2023-04-25T11:17:47;99149.78;;;7.44;100.00
24825;BME280;12910;57.690;11.974;2023-04-25T11:20:13;99166.78;;;7.49;100.00
24825;BME280;12910;57.690;11.974;2023-04-25T11:22:41;99165.06;;;7.42;100.00
24825;BME280;12910;57.690;11.974;2023-04-25T11:25:07;99144.56;;;7.21;100.00
24825;BME280;12910;57.690;11.974;2023-04-25T11:27:33;99148.72;;;7.09;100.00
24825;BME280;12910;57.690;11.974;2023-04-25T11:29:58;99152.13;;;7.08;100.00
24825;BME280;12910;57.690;11.974;2023-04-25T11:32:24;99170.88;;;7.20;100.00
24825;BME280;12910;57.690;11.974;2023-04-25T11:34:49;99170.88;;;7.16;100.00
24825;BME280;12910;57.690;11.974;2023-04-25T11:37:14;99187.91;;;7.27;100.00
24825;BME280;12910;57.690;11.974;2023-04-25T11:39:44;99199.09;;;7.49;100.00
24825;BME280;12910;57.690;11.974;2023-04-25T11:42:12;99180.28;;;7.31;100.00
24825;BME280;12910;57.690;11.974;2023-04-25T11:44:39;99194.84;;;7.49;100.00
24825;BME280;12910;57.690;11.974;2023-04-25T11:47:05;99190.53;;;7.38;100.00
24825;BME280;12910;57.690;11.974;2023-04-25T11:49:31;99180.28;;;7.30;100.00
24825;BME280;12910;57.690;11.974;2023-04-25T11:51:57;99194.75;;;7.37;100.00
24825;BME280;12910;57.690;11.974;2023-04-25T11:54:22;99196.47;;;7.37;100.00
24825;BME280;12910;57.690;11.974;2023-04-25T11:56:48;99201.53;;;7.33;100.00
24825;BME280;12910;57.690;11.974;2023-04-25T11:59:14;99177.66;;;7.17;100.00
24825;BME280;12910;57.690;11.974;2023-04-25T12:01:48;99193.03;;;7.30;100.00
24825;BME280;12910;57.690;11.974;2023-04-25T12:04:22;99216.03;;;7.38;100.00
24825;BME280;12910;57.690;11.974;2023-04-25T12:06:52;99205.75;;;7.24;100.00
24825;BME280;12910;57.690;11.974;2023-04-25T12:09:21;99211.66;;;7.16;100.00
24825;BME280;12910;57.690;11.974;2023-04-25T12:11:54;99205.75;;;7.27;100.00
24825;BME280;12910;57.690;11.974;2023-04-25T12:14:21;99225.38;;;7.40;100.00
24825;BME280;12910;57.690;11.974;2023-04-25T12:16:50;99234.75;;;7.44;100.00
24825;BME280;12910;57.690;11.974;2023-04-25T12:19:17;99230.50;;;7.43;100.00
24825;BME280;12910;57.690;11.974;2023-04-25T12:21:44;99233.88;;;7.41;100.00
24825;BME280;12910;57.690;11.974;2023-04-25T12:24:16;99230.44;;;7.37;100.00
24825;BME280;12910;57.690;11.974;2023-04-25T12:31:45;99210.88;;;7.28;100.00
24825;BME280;12910;57.690;11.974;2023-04-25T12:34:10;99233.78;;;7.25;100.00
24825;BME280;12910;57.690;11.974;2023-04-25T12:36:36;99224.25;;;7.01;100.00
24825;BME280;12910;57.690;11.974;2023-04-25T12:39:02;99214.78;;;6.86;100.00
24825;BME280;12910;57.690;11.974;2023-04-25T12:41:29;99198.56;;;6.75;100.00
24825;BME280;12910;57.690;11.974;2023-04-25T12:43:55;99220.06;;;7.06;100.00
24825;BME280;12910;57.690;11.974;2023-04-25T12:46:21;99221.91;;;7.29;100.00
24825;BME280;12910;57.690;11.974;2023-04-25T12:48:47;99225.28;;;7.28;100.00
24825;BME280;12910;57.690;11.974;2023-04-25T12:51:13;99233.69;;;7.17;100.00
24825;BME280;12910;57.690;11.974;2023-04-25T12:53:38;99226.91;;;7.15;100.00